sensor_id;sensor_type;location;lat;lon;timestamp;P1;durP1;ratioP1;P2;durP2;ratioP2
57093;SDS011;42970;50.996;3.706;2023-07-20T06:33:56;8.27;;;5.45;;
57093;SDS011;42970;50.996;3.706;2023-07-20T06:36:22;11.05;;;6.65;;
57093;SDS011;42970;50.996;3.706;2023-07-20T06:38:47;9.82;;;5.35;;
57093;SDS011;42970;50.996;3.706;2023-07-20T06:41:13;11.52;;;5.72;;
57093;SDS011;42970;50.996;3.706;2023-07-20T06:43:38;8.20;;;5.50;;
57093;SDS011;42970;50.996;3.706;2023-07-20T06:46:04;6.05;;;5.07;;
57093;SDS011;42970;50.996;3.706;2023-07-20T06:48:29;7.80;;;4.80;;
57093;SDS011;42970;50.996;3.706;2023-07-20T06:50:55;6.75;;;4.35;;
57093;SDS011;42970;50.996;3.706;2023-07-20T06:53:20;6.53;;;4.90;;
57093;SDS011;42970;50.996;3.706;2023-07-20T06:55:46;6.47;;;4.72;;
57093;SDS011;42970;50.996;3.706;2023-07-20T06:58:11;8.45;;;4.55;;
57093;SDS011;42970;50.996;3.706;2023-07-20T07:00:37;9.43;;;4.97;;
57093;SDS011;42970;50.996;3.706;2023-07-20T07:03:02;8.45;;;4.50;;
57093;SDS011;42970;50.996;3.706;2023-07-20T07:05:28;6.32;;;4.35;;
57093;SDS011;42970;50.996;3.706;2023-07-20T07:07:53;11.35;;;4.70;;
57093;SDS011;42970;50.996;3.706;2023-07-20T07:10:18;7.45;;;4.53;;
57093;SDS011;42970;50.996;3.706;2023-07-20T07:12:44;7.40;;;4.97;;
57093;SDS011;42970;50.996;3.706;2023-07-20T07:15:09;10.20;;;5.68;;
57093;SDS011;42970;50.996;3.706;2023-07-20T07:17:35;11.93;;;5.55;;
57093;SDS011;42970;50.996;3.706;2023-07-20T07:20:01;8.57;;;4.90;;
57093;SDS011;42970;50.996;3.706;2023-07-20T07:22:26;12.45;;;5.75;;
57093;SDS011;42970;50.996;3.706;2023-07-20T07:24:52;10.90;;;5.07;;
57093;SDS011;42970;50.996;3.706;2023-07-20T07:27:17;7.70;;;5.18;;
57093;SDS011;42970;50.996;3.706;2023-07-20T07:29:44;9.00;;;4.63;;
57093;SDS011;42970;50.996;3.706;2023-07-20T07:32:09;8.27;;;4.75;;
57093;SDS011;42970;50.996;3.706;2023-07-20T07:34:36;9.75;;;4.90;;
57093;SDS011;42970;50.996;3.706;2023-07-20T07:37:01;7.30;;;4.95;;
57093;SDS011;42970;50.996;3.706;2023-07-20T07:39:27;5.88;;;3.83;;
57093;SDS011;42970;50.996;3.706;2023-07-20T07:41:55;5.72;;;3.58;;
57093;SDS011;42970;50.996;3.706;2023-07-20T07:44:20;3.47;;;2.90;;
57093;SDS011;42970;50.996;3.706;2023-07-20T07:46:46;3.95;;;2.85;;
57093;SDS011;42970;50.996;3.706;2023-07-20T07:49:12;5.22;;;3.85;;
57093;SDS011;42970;50.996;3.706;2023-07-20T07:51:37;5.45;;;3.53;;
57093;SDS011;42970;50.996;3.706;2023-07-20T07:54:03;6.30;;;3.70;;
57093;SDS011;42970;50.996;3.706;2023-07-20T07:56:28;6.93;;;3.70;;
57093;SDS011;42970;50.996;3.706;2023-07-20T07:58:54;5.35;;;3.85;;
57093;SDS011;42970;50.996;3.706;2023-07-20T08:01:20;5.57;;;3.78;;
57093;SDS011;42970;50.996;3.706;2023-07-20T08:03:45;4.88;;;3.67;;
57093;SDS011;42970;50.996;3.706;2023-07-20T08:06:12;4.68;;;3.15;;
57093;SDS011;42970;50.996;3.706;2023-07-20T08:08:38;4.75;;;2.85;;
57093;SDS011;42970;50.996;3.706;2023-07-20T08:11:04;6.75;;;3.25;;
57093;SDS011;42970;50.996;3.706;2023-07-20T08:13:30;7.20;;;2.92;;
57093;SDS011;42970;50.996;3.706;2023-07-20T08:15:55;2.88;;;2.58;;
57093;SDS011;42970;50.996;3.706;2023-07-20T08:18:20;6.60;;;3.33;;
57093;SDS011;42970;50.996;3.706;2023-07-20T08:20:46;4.57;;;2.97;;
57093;SDS011;42970;50.996;3.706;2023-07-20T08:23:12;5.47;;;2.38;;
57093;SDS011;42970;50.996;3.706;2023-07-20T08:25:38;2.78;;;2.20;;
57093;SDS011;42970;50.996;3.706;2023-07-20T08:28:06;4.57;;;1.92;;
57093;SDS011;42970;50.996;3.706;2023-07-20T08:30:39;2.08;;;1.70;;
57093;SDS011;42970;50.996;3.706;2023-07-20T08:33:13;3.35;;;1.60;;
57093;SDS011;42970;50.996;3.706;2023-07-20T08:35:39;4.38;;;1.50;;
57093;SDS011;42970;50.996;3.706;2023-07-20T08:38:04;2.75;;;1.48;;
57093;SDS011;42970;50.996;3.706;2023-07-20T08:40:31;1.75;;;1.30;;
57093;SDS011;42970;50.996;3.706;2023-07-20T08:42:58;1.45;;;1.00;;
57093;SDS011;42970;50.996;3.706;2023-07-20T08:45:27;1.25;;;1.10;;
57093;SDS011;42970;50.996;3.706;2023-07-20T08:47:58;1.75;;;1.35;;
57093;SDS011;42970;50.996;3.706;2023-07-20T08:50:25;1.98;;;1.50;;
57093;SDS011;42970;50.996;3.706;2023-07-20T08:52:52;2.40;;;1.52;;
57093;SDS011;42970;50.996;3.706;2023-07-20T08:55:18;2.00;;;1.50;;
57093;SDS011;42970;50.996;3.706;2023-07-20T08:57:48;3.45;;;1.60;;
57093;SDS011;42970;50.996;3.706;2023-07-20T09:00:16;1.63;;;1.40;;
57093;SDS011;42970;50.996;3.706;2023-07-20T09:02:44;5.18;;;1.60;;
57093;SDS011;42970;50.996;3.706;2023-07-20T09:05:10;4.53;;;1.80;;
57093;SDS011;42970;50.996;3.706;2023-07-20T09:07:36;1.60;;;1.50;;
57093;SDS011;42970;50.996;3.706;2023-07-20T09:10:02;1.98;;;1.30;;
57093;SDS011;42970;50.996;3.706;2023-07-20T09:12:40;2.65;;;1.30;;
57093;SDS011;42970;50.996;3.706;2023-07-20T09:15:07;4.00;;;1.13;;
57093;SDS011;42970;50.996;3.706;2023-07-20T09:17:34;2.78;;;1.25;;
57093;SDS011;42970;50.996;3.706;2023-07-20T09:20:03;2.28;;;1.63;;
57093;SDS011;42970;50.996;3.706;2023-07-20T09:22:35;2.63;;;1.50;;
57093;SDS011;42970;50.996;3.706;2023-07-20T09:25:05;2.00;;;1.20;;
57093;SDS011;42970;50.996;3.706;2023-07-20T09:27:51;2.03;;;1.20;;
57093;SDS011;42970;50.996;3.706;2023-07-20T09:30:16;2.33;;;1.52;;
57093;SDS011;42970;50.996;3.706;2023-07-20T09:32:48;2.70;;;2.08;;
57093;SDS011;42970;50.996;3.706;2023-07-20T09:35:16;1.90;;;1.70;;
57093;SDS011;42970;50.996;3.706;2023-07-20T09:37:46;3.13;;;1.92;;
57093;SDS011;42970;50.996;3.706;2023-07-20T09:40:19;4.90;;;1.92;;
57093;SDS011;42970;50.996;3.706;2023-07-20T09:42:45;2.85;;;2.20;;
57093;SDS011;42970;50.996;3.706;2023-07-20T09:45:10;2.95;;;2.25;;
57093;SDS011;42970;50.996;3.706;2023-07-20T09:47:37;3.53;;;2.30;;
57093;SDS011;42970;50.996;3.706;2023-07-20T09:50:03;2.83;;;2.30;;
57093;SDS011;42970;50.996;3.706;2023-07-20T09:52:29;3.90;;;2.20;;
57093;SDS011;42970;50.996;3.706;2023-07-20T09:54:56;3.50;;;2.47;;
57093;SDS011;42970;50.996;3.706;2023-07-20T09:57:22;3.65;;;2.60;;
57093;SDS011;42970;50.996;3.706;2023-07-20T09:59:48;2.60;;;2.40;;
57093;SDS011;42970;50.996;3.706;2023-07-20T10:02:20;4.38;;;2.40;;
57093;SDS011;42970;50.996;3.706;2023-07-20T10:04:51;3.08;;;2.20;;
57093;SDS011;42970;50.996;3.706;2023-07-20T10:07:18;2.97;;;2.63;;
57093;SDS011;42970;50.996;3.706;2023-07-20T10:09:46;4.07;;;2.38;;
57093;SDS011;42970;50.996;3.706;2023-07-20T10:12:13;3.03;;;2.17;;
57093;SDS011;42970;50.996;3.706;2023-07-20T10:14:41;3.50;;;2.20;;
57093;SDS011;42970;50.996;3.706;2023-07-20T10:17:14;3.30;;;2.45;;
57093;SDS011;42970;50.996;3.706;2023-07-20T10:19:42;3.42;;;2.42;;
57093;SDS011;42970;50.996;3.706;2023-07-20T10:22:24;3.60;;;2.63;;
57093;SDS011;42970;50.996;3.706;2023-07-20T10:24:51;10.68;;;2.63;;
57093;SDS011;42970;50.996;3.706;2023-07-20T10:27:19;5.25;;;2.30;;
57093;SDS011;42970;50.996;3.706;2023-07-20T10:29:46;2.38;;;2.17;;
57093;SDS011;42970;50.996;3.706;2023-07-20T10:32:12;3.05;;;2.33;;
57093;SDS011;42970;50.996;3.706;2023-07-20T10:34:38;3.90;;;2.40;;
57093;SDS011;42970;50.996;3.706;2023-07-20T10:37:04;3.08;;;2.10;;
57093;SDS011;42970;50.996;3.706;2023-07-20T10:39:33;5.40;;;1.88;;
57093;SDS011;42970;50.996;3.706;2023-07-20T10:42:09;1.77;;;1.58;;
57093;SDS011;42970;50.996;3.706;2023-07-20T10:44:38;5.25;;;2.15;;
57093;SDS011;42970;50.996;3.706;2023-07-20T10:47:11;3.13;;;1.90;;
57093;SDS011;42970;50.996;3.706;2023-07-20T10:52:25;2.58;;;2.03;;
57093;SDS011;42970;50.996;3.706;2023-07-20T10:54:51;4.63;;;2.33;;
57093;SDS011;42970;50.996;3.706;2023-07-20T10:57:28;2.65;;;1.60;;
57093;SDS011;42970;50.996;3.706;2023-07-20T11:00:11;3.08;;;1.65;;
57093;SDS011;42970;50.996;3.706;2023-07-20T11:02:44;11.65;;;2.10;;
57093;SDS011;42970;50.996;3.706;2023-07-20T11:07:59;3.90;;;2.05;;
57093;SDS011;42970;50.996;3.706;2023-07-20T11:10:24;2.33;;;2.13;;
57093;SDS011;42970;50.996;3.706;2023-07-20T11:13:32;3.10;;;2.00;;
57093;SDS011;42970;50.996;3.706;2023-07-20T11:15:46;3.00;;;2.00;;
57093;SDS011;42970;50.996;3.706;2023-07-20T11:18:33;3.65;;;1.90;;
57093;SDS011;42970;50.996;3.706;2023-07-20T11:20:59;2.10;;;1.90;;
57093;SDS011;42970;50.996;3.706;2023-07-20T11:23:25;3.10;;;2.00;;
57093;SDS011;42970;50.996;3.706;2023-07-20T11:25:51;2.80;;;1.80;;
57093;SDS011;42970;50.996;3.706;2023-07-20T11:28:16;5.75;;;1.73;;
57093;SDS011;42970;50.996;3.706;2023-07-20T11:30:42;3.70;;;1.83;;
57093;SDS011;42970;50.996;3.706;2023-07-20T11:33:10;3.78;;;2.45;;
57093;SDS011;42970;50.996;3.706;2023-07-20T11:35:41;2.10;;;1.90;;
57093;SDS011;42970;50.996;3.706;2023-07-20T11:38:12;10.60;;;2.00;;
57093;SDS011;42970;50.996;3.706;2023-07-20T11:40:47;2.10;;;1.90;;
57093;SDS011;42970;50.996;3.706;2023-07-20T11:43:12;2.30;;;2.10;;
57093;SDS011;42970;50.996;3.706;2023-07-20T11:45:39;3.83;;;2.08;;
57093;SDS011;42970;50.996;3.706;2023-07-20T11:48:05;5.15;;;1.92;;
57093;SDS011;42970;50.996;3.706;2023-07-20T11:50:30;4.10;;;2.15;;
57093;SDS011;42970;50.996;3.706;2023-07-20T11:52:56;2.88;;;1.88;;
57093;SDS011;42970;50.996;3.706;2023-07-20T11:55:22;2.22;;;1.65;;
57093;SDS011;42970;50.996;3.706;2023-07-20T11:58:00;4.13;;;2.08;;
57093;SDS011;42970;50.996;3.706;2023-07-20T12:00:33;3.05;;;2.00;;
57093;SDS011;42970;50.996;3.706;2023-07-20T12:02:59;3.58;;;1.70;;
57093;SDS011;42970;50.996;3.706;2023-07-20T12:05:25;2.28;;;2.00;;
57093;SDS011;42970;50.996;3.706;2023-07-20T12:07:51;2.08;;;1.88;;
57093;SDS011;42970;50.996;3.706;2023-07-20T12:10:22;3.25;;;1.90;;
57093;SDS011;42970;50.996;3.706;2023-07-20T12:12:49;6.07;;;2.00;;
57093;SDS011;42970;50.996;3.706;2023-07-20T12:17:55;2.58;;;1.98;;
57093;SDS011;42970;50.996;3.706;2023-07-20T12:20:31;2.88;;;2.50;;
57093;SDS011;42970;50.996;3.706;2023-07-20T12:23:12;3.10;;;2.47;;
57093;SDS011;42970;50.996;3.706;2023-07-20T12:25:42;3.30;;;2.60;;
57093;SDS011;42970;50.996;3.706;2023-07-20T12:28:10;3.42;;;2.25;;
57093;SDS011;42970;50.996;3.706;2023-07-20T12:30:43;2.83;;;2.20;;
57093;SDS011;42970;50.996;3.706;2023-07-20T12:33:10;8.48;;;2.22;;
57093;SDS011;42970;50.996;3.706;2023-07-20T12:35:37;2.92;;;1.65;;
57093;SDS011;42970;50.996;3.706;2023-07-20T12:38:02;2.35;;;1.90;;
57093;SDS011;42970;50.996;3.706;2023-07-20T12:40:28;2.85;;;1.92;;
57093;SDS011;42970;50.996;3.706;2023-07-20T12:42:53;3.88;;;1.95;;
57093;SDS011;42970;50.996;3.706;2023-07-20T12:45:18;5.95;;;1.88;;
57093;SDS011;42970;50.996;3.706;2023-07-20T12:47:44;2.00;;;1.63;;
57093;SDS011;42970;50.996;3.706;2023-07-20T12:50:10;1.65;;;1.52;;
57093;SDS011;42970;50.996;3.706;2023-07-20T12:52:36;2.10;;;1.58;;
57093;SDS011;42970;50.996;3.706;2023-07-20T12:55:04;3.40;;;1.45;;
57093;SDS011;42970;50.996;3.706;2023-07-20T12:57:31;2.58;;;1.33;;
57093;SDS011;42970;50.996;3.706;2023-07-20T12:59:56;1.45;;;1.00;;
57093;SDS011;42970;50.996;3.706;2023-07-20T13:02:22;1.33;;;1.15;;
57093;SDS011;42970;50.996;3.706;2023-07-20T13:04:47;1.27;;;1.17;;
57093;SDS011;42970;50.996;3.706;2023-07-20T13:07:12;1.50;;;0.80;;
57093;SDS011;42970;50.996;3.706;2023-07-20T13:09:38;3.25;;;1.10;;
57093;SDS011;42970;50.996;3.706;2023-07-20T13:12:03;1.45;;;1.00;;
57093;SDS011;42970;50.996;3.706;2023-07-20T13:14:29;2.85;;;1.10;;
57093;SDS011;42970;50.996;3.706;2023-07-20T13:16:57;4.13;;;1.30;;
57093;SDS011;42970;50.996;3.706;2023-07-20T13:19:22;5.50;;;1.23;;
57093;SDS011;42970;50.996;3.706;2023-07-20T13:21:47;1.25;;;1.10;;
57093;SDS011;42970;50.996;3.706;2023-07-20T13:24:13;2.92;;;1.13;;
57093;SDS011;42970;50.996;3.706;2023-07-20T13:26:38;3.28;;;1.08;;
57093;SDS011;42970;50.996;3.706;2023-07-20T13:29:04;2.47;;;1.05;;
57093;SDS011;42970;50.996;3.706;2023-07-20T13:33:55;1.20;;;0.93;;
57093;SDS011;42970;50.996;3.706;2023-07-20T13:36:21;1.20;;;1.10;;
57093;SDS011;42970;50.996;3.706;2023-07-20T13:38:47;1.58;;;1.27;;
57093;SDS011;42970;50.996;3.706;2023-07-20T13:43:39;2.38;;;1.30;;
57093;SDS011;42970;50.996;3.706;2023-07-20T13:46:05;4.35;;;1.20;;
57093;SDS011;42970;50.996;3.706;2023-07-20T13:48:31;1.67;;;1.27;;
57093;SDS011;42970;50.996;3.706;2023-07-20T13:50:56;3.42;;;1.55;;
57093;SDS011;42970;50.996;3.706;2023-07-20T13:53:21;3.08;;;1.25;;
57093;SDS011;42970;50.996;3.706;2023-07-20T13:55:47;3.75;;;1.45;;
57093;SDS011;42970;50.996;3.706;2023-07-20T13:58:13;4.00;;;2.13;;
57093;SDS011;42970;50.996;3.706;2023-07-20T14:00:39;3.90;;;1.87;;
57093;SDS011;42970;50.996;3.706;2023-07-20T14:03:04;5.32;;;2.25;;
57093;SDS011;42970;50.996;3.706;2023-07-20T14:05:30;3.55;;;1.50;;
57093;SDS011;42970;50.996;3.706;2023-07-20T15:45:56;12.63;;;7.15;;
57093;SDS011;42970;50.996;3.706;2023-07-20T15:48:27;8.38;;;6.07;;
57093;SDS011;42970;50.996;3.706;2023-07-20T15:50:52;7.50;;;5.95;;
57093;SDS011;42970;50.996;3.706;2023-07-20T15:53:18;13.43;;;5.93;;
57093;SDS011;42970;50.996;3.706;2023-07-20T15:55:43;10.55;;;5.55;;
57093;SDS011;42970;50.996;3.706;2023-07-20T15:58:08;5.30;;;4.70;;
57093;SDS011;42970;50.996;3.706;2023-07-20T16:00:34;7.55;;;5.03;;
57093;SDS011;42970;50.996;3.706;2023-07-20T16:02:59;8.27;;;4.75;;
57093;SDS011;42970;50.996;3.706;2023-07-20T16:05:25;5.28;;;3.97;;
57093;SDS011;42970;50.996;3.706;2023-07-20T16:07:50;6.40;;;3.25;;
57093;SDS011;42970;50.996;3.706;2023-07-20T16:10:16;3.70;;;2.88;;
57093;SDS011;42970;50.996;3.706;2023-07-20T16:12:41;7.28;;;4.03;;
57093;SDS011;42970;50.996;3.706;2023-07-20T16:15:08;10.77;;;3.83;;
57093;SDS011;42970;50.996;3.706;2023-07-20T16:17:34;5.82;;;3.60;;
57093;SDS011;42970;50.996;3.706;2023-07-20T16:19:59;5.28;;;2.80;;
57093;SDS011;42970;50.996;3.706;2023-07-20T16:22:25;3.70;;;2.67;;
57093;SDS011;42970;50.996;3.706;2023-07-20T16:24:50;3.88;;;3.00;;
57093;SDS011;42970;50.996;3.706;2023-07-20T16:27:15;4.47;;;3.40;;
57093;SDS011;42970;50.996;3.706;2023-07-20T16:29:41;4.45;;;3.08;;
57093;SDS011;42970;50.996;3.706;2023-07-20T16:32:06;5.30;;;3.22;;
57093;SDS011;42970;50.996;3.706;2023-07-20T16:34:32;5.72;;;3.35;;
57093;SDS011;42970;50.996;3.706;2023-07-20T16:36:58;7.35;;;3.30;;
57093;SDS011;42970;50.996;3.706;2023-07-20T16:39:24;4.47;;;3.67;;
57093;SDS011;42970;50.996;3.706;2023-07-20T16:41:50;4.57;;;3.72;;
57093;SDS011;42970;50.996;3.706;2023-07-20T16:44:16;6.72;;;4.15;;
57093;SDS011;42970;50.996;3.706;2023-07-20T16:46:41;4.60;;;3.50;;
57093;SDS011;42970;50.996;3.706;2023-07-20T16:49:07;4.80;;;3.60;;
57093;SDS011;42970;50.996;3.706;2023-07-20T16:51:34;3.42;;;3.13;;
57093;SDS011;42970;50.996;3.706;2023-07-20T16:54:00;6.07;;;3.30;;
57093;SDS011;42970;50.996;3.706;2023-07-20T16:56:26;5.38;;;3.35;;
57093;SDS011;42970;50.996;3.706;2023-07-20T16:58:52;6.72;;;3.75;;
57093;SDS011;42970;50.996;3.706;2023-07-20T17:01:17;7.30;;;3.95;;
57093;SDS011;42970;50.996;3.706;2023-07-20T17:03:42;7.30;;;3.67;;
57093;SDS011;42970;50.996;3.706;2023-07-20T17:06:08;3.72;;;2.97;;
57093;SDS011;42970;50.996;3.706;2023-07-20T17:08:33;4.20;;;2.95;;
57093;SDS011;42970;50.996;3.706;2023-07-20T17:11:02;4.25;;;3.28;;
57093;SDS011;42970;50.996;3.706;2023-07-20T17:13:28;3.97;;;2.72;;
57093;SDS011;42970;50.996;3.706;2023-07-20T17:15:58;4.10;;;3.30;;
57093;SDS011;42970;50.996;3.706;2023-07-20T17:18:23;4.30;;;3.05;;
57093;SDS011;42970;50.996;3.706;2023-07-20T17:20:49;4.45;;;3.05;;
57093;SDS011;42970;50.996;3.706;2023-07-20T17:23:15;3.30;;;2.97;;
57093;SDS011;42970;50.996;3.706;2023-07-20T17:25:43;5.25;;;3.35;;
57093;SDS011;42970;50.996;3.706;2023-07-20T17:28:12;5.00;;;3.70;;
57093;SDS011;42970;50.996;3.706;2023-07-20T17:30:38;5.35;;;3.95;;
57093;SDS011;42970;50.996;3.706;2023-07-20T17:33:03;5.25;;;3.58;;
57093;SDS011;42970;50.996;3.706;2023-07-20T17:35:29;5.93;;;3.30;;
57093;SDS011;42970;50.996;3.706;2023-07-20T17:37:54;5.18;;;3.80;;
57093;SDS011;42970;50.996;3.706;2023-07-20T17:40:20;5.07;;;3.60;;
57093;SDS011;42970;50.996;3.706;2023-07-20T17:42:45;5.45;;;3.70;;
57093;SDS011;42970;50.996;3.706;2023-07-20T17:45:12;6.20;;;3.88;;
57093;SDS011;42970;50.996;3.706;2023-07-20T17:47:38;4.57;;;3.80;;
57093;SDS011;42970;50.996;3.706;2023-07-20T17:50:04;7.05;;;3.80;;
57093;SDS011;42970;50.996;3.706;2023-07-20T17:52:31;4.90;;;3.95;;
57093;SDS011;42970;50.996;3.706;2023-07-20T17:54:56;4.90;;;3.50;;
57093;SDS011;42970;50.996;3.706;2023-07-20T17:57:22;5.15;;;3.60;;
57093;SDS011;42970;50.996;3.706;2023-07-20T17:59:47;5.18;;;3.50;;
57093;SDS011;42970;50.996;3.706;2023-07-20T18:02:13;7.32;;;3.42;;
57093;SDS011;42970;50.996;3.706;2023-07-20T18:04:38;5.20;;;3.17;;
57093;SDS011;42970;50.996;3.706;2023-07-20T18:07:04;4.93;;;4.13;;
57093;SDS011;42970;50.996;3.706;2023-07-20T18:09:29;6.18;;;3.58;;
57093;SDS011;42970;50.996;3.706;2023-07-20T18:11:55;8.25;;;3.38;;
57093;SDS011;42970;50.996;3.706;2023-07-20T18:14:20;5.22;;;3.20;;
57093;SDS011;42970;50.996;3.706;2023-07-20T18:16:46;5.00;;;3.33;;
57093;SDS011;42970;50.996;3.706;2023-07-20T18:19:11;4.15;;;2.83;;
57093;SDS011;42970;50.996;3.706;2023-07-20T18:21:37;6.88;;;3.28;;
57093;SDS011;42970;50.996;3.706;2023-07-20T18:24:02;4.95;;;3.20;;
57093;SDS011;42970;50.996;3.706;2023-07-20T18:26:28;11.95;;;3.55;;
57093;SDS011;42970;50.996;3.706;2023-07-20T18:28:53;4.25;;;3.03;;
57093;SDS011;42970;50.996;3.706;2023-07-20T18:31:19;4.82;;;3.35;;
57093;SDS011;42970;50.996;3.706;2023-07-20T18:33:44;4.10;;;3.13;;
57093;SDS011;42970;50.996;3.706;2023-07-20T18:36:10;8.50;;;3.17;;
57093;SDS011;42970;50.996;3.706;2023-07-20T18:38:36;4.60;;;3.65;;
57093;SDS011;42970;50.996;3.706;2023-07-20T18:41:02;8.20;;;3.53;;
57093;SDS011;42970;50.996;3.706;2023-07-20T18:43:27;5.53;;;3.75;;
57093;SDS011;42970;50.996;3.706;2023-07-20T18:45:54;5.80;;;3.50;;
57093;SDS011;42970;50.996;3.706;2023-07-20T18:48:19;7.78;;;3.30;;
57093;SDS011;42970;50.996;3.706;2023-07-20T18:50:45;7.32;;;3.72;;
57093;SDS011;42970;50.996;3.706;2023-07-20T18:53:10;11.30;;;3.80;;
57093;SDS011;42970;50.996;3.706;2023-07-20T18:55:36;4.82;;;3.63;;
57093;SDS011;42970;50.996;3.706;2023-07-20T18:58:02;4.65;;;3.80;;
57093;SDS011;42970;50.996;3.706;2023-07-20T19:00:30;6.35;;;3.97;;
57093;SDS011;42970;50.996;3.706;2023-07-20T19:02:57;6.03;;;3.45;;
57093;SDS011;42970;50.996;3.706;2023-07-20T19:05:22;3.95;;;3.38;;
57093;SDS011;42970;50.996;3.706;2023-07-20T19:07:49;7.13;;;3.92;;
57093;SDS011;42970;50.996;3.706;2023-07-20T19:10:14;4.57;;;3.55;;
57093;SDS011;42970;50.996;3.706;2023-07-20T19:12:40;7.38;;;3.90;;
57093;SDS011;42970;50.996;3.706;2023-07-20T19:15:06;4.53;;;4.05;;
57093;SDS011;42970;50.996;3.706;2023-07-20T19:17:32;5.10;;;4.10;;
57093;SDS011;42970;50.996;3.706;2023-07-20T19:19:57;6.90;;;4.15;;
57093;SDS011;42970;50.996;3.706;2023-07-20T19:22:23;9.07;;;4.13;;
57093;SDS011;42970;50.996;3.706;2023-07-20T19:24:48;8.05;;;4.75;;
57093;SDS011;42970;50.996;3.706;2023-07-20T19:27:14;9.85;;;5.05;;
57093;SDS011;42970;50.996;3.706;2023-07-20T19:29:40;8.80;;;4.13;;
57093;SDS011;42970;50.996;3.706;2023-07-20T19:32:06;5.72;;;4.65;;
57093;SDS011;42970;50.996;3.706;2023-07-20T19:34:32;7.70;;;5.05;;
57093;SDS011;42970;50.996;3.706;2023-07-20T19:36:57;8.77;;;5.07;;
57093;SDS011;42970;50.996;3.706;2023-07-20T19:39:23;6.85;;;5.30;;
57093;SDS011;42970;50.996;3.706;2023-07-20T19:41:49;6.95;;;5.45;;
57093;SDS011;42970;50.996;3.706;2023-07-20T19:44:16;7.35;;;5.55;;
57093;SDS011;42970;50.996;3.706;2023-07-20T19:46:42;14.50;;;7.85;;
57093;SDS011;42970;50.996;3.706;2023-07-20T19:49:08;8.13;;;6.50;;
57093;SDS011;42970;50.996;3.706;2023-07-20T19:51:33;8.00;;;4.82;;
57093;SDS011;42970;50.996;3.706;2023-07-20T19:54:01;7.72;;;5.22;;
57093;SDS011;42970;50.996;3.706;2023-07-20T19:56:26;9.50;;;6.10;;
57093;SDS011;42970;50.996;3.706;2023-07-20T19:58:53;11.73;;;6.33;;
57093;SDS011;42970;50.996;3.706;2023-07-20T20:01:19;10.90;;;6.50;;
57093;SDS011;42970;50.996;3.706;2023-07-20T20:03:45;12.30;;;7.70;;
57093;SDS011;42970;50.996;3.706;2023-07-20T20:06:12;11.88;;;7.70;;
57093;SDS011;42970;50.996;3.706;2023-07-20T20:08:37;11.93;;;7.55;;
57093;SDS011;42970;50.996;3.706;2023-07-20T20:11:03;10.23;;;6.97;;
57093;SDS011;42970;50.996;3.706;2023-07-20T20:13:29;12.05;;;6.80;;
57093;SDS011;42970;50.996;3.706;2023-07-20T20:15:56;9.05;;;6.00;;
57093;SDS011;42970;50.996;3.706;2023-07-20T20:18:22;8.88;;;6.82;;
57093;SDS011;42970;50.996;3.706;2023-07-20T20:20:47;8.97;;;7.03;;
57093;SDS011;42970;50.996;3.706;2023-07-20T20:23:17;13.90;;;7.90;;
57093;SDS011;42970;50.996;3.706;2023-07-20T20:25:44;11.13;;;7.50;;
57093;SDS011;42970;50.996;3.706;2023-07-20T20:28:10;10.27;;;7.32;;
57093;SDS011;42970;50.996;3.706;2023-07-20T20:30:35;12.00;;;7.13;;
57093;SDS011;42970;50.996;3.706;2023-07-20T20:33:02;14.88;;;7.97;;
57093;SDS011;42970;50.996;3.706;2023-07-20T20:35:29;8.40;;;6.13;;
57093;SDS011;42970;50.996;3.706;2023-07-20T20:37:55;11.05;;;5.70;;
57093;SDS011;42970;50.996;3.706;2023-07-20T20:40:21;8.30;;;6.40;;
57093;SDS011;42970;50.996;3.706;2023-07-20T20:42:46;7.95;;;7.05;;
57093;SDS011;42970;50.996;3.706;2023-07-20T20:45:14;11.65;;;7.85;;
57093;SDS011;42970;50.996;3.706;2023-07-20T20:47:40;10.77;;;7.97;;
57093;SDS011;42970;50.996;3.706;2023-07-20T20:50:05;11.43;;;7.85;;
57093;SDS011;42970;50.996;3.706;2023-07-20T20:52:34;10.67;;;6.83;;
57093;SDS011;42970;50.996;3.706;2023-07-20T20:54:59;11.57;;;6.70;;
